createdAt,value
2022-09-12T00:02:22.354Z,14.22
2022-09-12T00:05:26.165Z,14.14
2022-09-12T00:08:28.642Z,14.17
2022-09-12T00:11:31.607Z,14.11
2022-09-12T00:14:34.149Z,14.08
2022-09-12T00:17:38.440Z,14.04
2022-09-12T00:20:46.595Z,14.06
2022-09-12T00:23:50.661Z,14.05
2022-09-12T00:26:53.298Z,14.02
2022-09-12T00:29:56.314Z,14.03
2022-09-12T00:32:58.884Z,13.98
2022-09-12T00:36:05.723Z,13.98
2022-09-12T00:39:09.216Z,13.92
2022-09-12T00:42:12.693Z,13.93
2022-09-12T00:45:26.475Z,13.90
2022-09-12T00:48:37.285Z,13.87
2022-09-12T00:52:03.237Z,13.88
2022-09-12T00:55:21.098Z,13.82
2022-09-12T00:58:28.739Z,13.82
2022-09-12T01:01:32.913Z,13.84
2022-09-12T01:04:38.691Z,13.82
2022-09-12T01:07:42.801Z,13.77
2022-09-12T01:10:46.159Z,13.81
2022-09-12T01:13:50.623Z,13.80
2022-09-12T01:16:53.235Z,13.79
2022-09-12T01:20:17.694Z,13.80
2022-09-12T01:23:45.969Z,13.76
2022-09-12T01:27:16.631Z,13.69
2022-09-12T01:30:28.117Z,13.73
2022-09-12T01:33:51.860Z,13.71
2022-09-12T01:37:19.446Z,13.69
2022-09-12T01:40:25.239Z,13.75
2022-09-12T01:43:37.684Z,13.72
2022-09-12T01:47:03.192Z,13.69
2022-09-12T01:50:18.743Z,13.66
2022-09-12T01:53:27.469Z,13.61
2022-09-12T01:56:35.615Z,13.66
2022-09-12T01:59:47.498Z,13.61
2022-09-12T02:02:57.391Z,13.53
2022-09-12T02:06:06.591Z,13.49
2022-09-12T02:09:18.592Z,13.39
2022-09-12T02:12:27.595Z,13.40
2022-09-12T02:15:38.410Z,13.44
2022-09-12T02:18:46.692Z,13.53
2022-09-12T02:21:55.903Z,13.51
2022-09-12T02:25:00.878Z,13.51
2022-09-12T02:28:27.725Z,13.49
2022-09-12T02:31:37.409Z,13.51
2022-09-12T02:35:03.320Z,13.59
2022-09-12T02:38:29.378Z,13.65
2022-09-12T02:41:32.010Z,13.51
2022-09-12T02:44:36.316Z,13.49
2022-09-12T02:47:53.888Z,13.48
2022-09-12T02:50:57.431Z,13.45
2022-09-12T02:54:00.404Z,13.41
2022-09-12T02:57:03.339Z,13.35
2022-09-12T03:00:07.372Z,13.35
2022-09-12T03:03:22.358Z,13.34
2022-09-12T03:06:40.966Z,13.32
2022-09-12T03:10:51.761Z,13.22
2022-09-12T03:13:54.099Z,13.25
2022-09-12T03:17:04.599Z,13.20
2022-09-12T03:20:20.022Z,13.18
2022-09-12T03:23:40.518Z,13.29
2022-09-12T03:26:48.169Z,13.27
2022-09-12T03:29:52.084Z,13.23
2022-09-12T03:32:55.379Z,13.32
2022-09-12T03:35:58.813Z,13.33
2022-09-12T03:39:01.258Z,13.26
2022-09-12T03:42:04.142Z,13.20
2022-09-12T03:45:07.647Z,13.22
2022-09-12T03:48:10.386Z,13.24
2022-09-12T03:51:12.931Z,13.26
2022-09-12T03:54:15.796Z,13.26
2022-09-12T03:57:18.738Z,13.30
2022-09-12T04:00:22.659Z,13.43
2022-09-12T04:03:25.503Z,13.39
2022-09-12T04:06:28.004Z,13.35
2022-09-12T04:09:30.801Z,13.36
2022-09-12T04:12:33.356Z,13.28
2022-09-12T04:15:36.032Z,13.26
2022-09-12T04:18:39.070Z,13.17
2022-09-12T04:21:41.880Z,13.14
2022-09-12T04:24:44.359Z,13.10
2022-09-12T04:27:47.107Z,13.09
2022-09-12T04:30:50.120Z,13.03
2022-09-12T04:33:57.904Z,13.04
2022-09-12T04:37:00.477Z,13.15
2022-09-12T04:40:03.440Z,13.19
2022-09-12T04:43:08.456Z,13.17
2022-09-12T04:46:16.661Z,13.22
2022-09-12T04:49:19.513Z,13.25
2022-09-12T04:52:22.362Z,13.28
2022-09-12T04:55:25.345Z,13.28
2022-09-12T04:58:28.128Z,13.31
2022-09-12T05:01:30.678Z,13.33
2022-09-12T05:04:33.632Z,13.30
2022-09-12T05:07:36.185Z,13.37
2022-09-12T05:10:38.995Z,13.40
2022-09-12T05:13:41.747Z,13.44
2022-09-12T05:16:49.055Z,13.49
2022-09-12T05:19:52.174Z,13.54
2022-09-12T05:22:55.847Z,13.60
2022-09-12T05:25:59.378Z,13.67
2022-09-12T05:29:05.231Z,13.83
2022-09-12T05:32:07.719Z,13.99
2022-09-12T05:35:11.175Z,14.21
2022-09-12T05:38:13.612Z,14.32
2022-09-12T05:41:24.255Z,14.35
2022-09-12T05:44:28.223Z,14.34
2022-09-12T05:47:31.259Z,14.39
2022-09-12T05:50:33.815Z,14.34
2022-09-12T05:53:38.270Z,14.35
2022-09-12T05:56:42.810Z,14.24
2022-09-12T05:59:45.965Z,14.29
2022-09-12T06:02:53.302Z,14.44
2022-09-12T06:05:56.146Z,14.39
2022-09-12T06:09:00.697Z,14.51
2022-09-12T06:12:03.977Z,14.42
2022-09-12T06:15:08.066Z,14.50
2022-09-12T06:18:10.987Z,14.53
2022-09-12T06:21:14.480Z,14.64
2022-09-12T06:24:18.619Z,14.74
2022-09-12T06:27:21.100Z,15.06
2022-09-12T06:30:25.542Z,15.28
2022-09-12T06:33:28.187Z,15.76
2022-09-12T06:36:45.825Z,15.63
2022-09-12T06:39:48.718Z,15.87
2022-09-12T06:42:51.432Z,16.51
2022-09-12T06:46:02.532Z,16.48
2022-09-12T06:49:05.276Z,16.88
2022-09-12T06:52:07.773Z,17.17
2022-09-12T06:55:10.711Z,17.09
2022-09-12T06:58:13.194Z,17.57
2022-09-12T07:01:23.563Z,16.86
2022-09-12T07:04:26.244Z,16.64
2022-09-12T07:07:29.900Z,16.71
2022-09-12T07:10:32.541Z,17.84
2022-09-12T07:13:35.290Z,17.73
2022-09-12T07:16:38.172Z,18.48
2022-09-12T07:19:41.501Z,18.56
2022-09-12T07:22:43.983Z,18.39
2022-09-12T07:25:57.543Z,18.15
2022-09-12T07:29:25.256Z,19.07
2022-09-12T07:32:23.827Z,19.29
2022-09-12T07:35:26.333Z,19.53
2022-09-12T07:38:29.997Z,19.12
2022-09-12T07:41:36.190Z,17.54
2022-09-12T07:44:39.034Z,18.59
2022-09-12T07:47:41.502Z,17.58
2022-09-12T07:50:45.192Z,18.24
2022-09-12T07:53:49.372Z,17.56
2022-09-12T07:56:52.383Z,19.06
2022-09-12T07:59:54.933Z,19.64
2022-09-12T08:02:57.785Z,19.96
2022-09-12T08:06:12.641Z,20.20
2022-09-12T08:09:17.425Z,20.27
2022-09-12T08:12:20.440Z,21.03
2022-09-12T08:15:22.908Z,20.98
2022-09-12T08:18:30.334Z,21.54
2022-09-12T08:21:34.122Z,21.36
2022-09-12T08:24:37.221Z,21.11
2022-09-12T08:27:39.778Z,20.72
2022-09-12T08:30:42.526Z,21.75
2022-09-12T08:33:45.302Z,22.72
2022-09-12T08:36:48.214Z,22.59
2022-09-12T08:39:52.735Z,23.40
2022-09-12T08:43:26.079Z,23.48
2022-09-12T08:46:50.440Z,23.92
2022-09-12T08:50:05.610Z,23.74
2022-09-12T08:53:21.865Z,24.55
2022-09-12T08:56:31.542Z,22.72
2022-09-12T08:59:42.161Z,20.80
2022-09-12T09:03:00.137Z,20.53
2022-09-12T09:06:23.887Z,20.35
2022-09-12T09:09:59.175Z,19.78
2022-09-12T09:13:35.929Z,19.76
2022-09-12T09:16:41.458Z,19.24
2022-09-12T09:19:50.918Z,19.35
2022-09-12T09:23:15.419Z,19.22
2022-09-12T09:26:32.697Z,19.44
2022-09-12T09:29:41.919Z,19.58
2022-09-12T09:32:50.463Z,19.63
2022-09-12T09:36:14.913Z,19.51
2022-09-12T09:39:28.620Z,19.74
2022-09-12T09:43:04.871Z,20.10
2022-09-12T09:46:08.118Z,20.11
2022-09-12T09:49:14.643Z,19.81
2022-09-12T09:52:29.496Z,20.22
2022-09-12T09:55:42.398Z,20.83
2022-09-12T09:58:45.124Z,20.82
2022-09-12T10:01:54.677Z,20.56
2022-09-12T10:04:59.793Z,20.32
2022-09-12T10:08:04.848Z,20.22
2022-09-12T10:11:20.115Z,19.91
2022-09-12T10:14:28.481Z,20.14
2022-09-12T10:17:44.457Z,20.09
2022-09-12T10:20:47.075Z,19.97
2022-09-12T10:23:59.952Z,19.68
2022-09-12T10:27:20.275Z,19.28
2022-09-12T10:30:27.982Z,19.13
2022-09-12T10:33:37.429Z,19.31
2022-09-12T10:36:40.845Z,19.81
2022-09-12T10:39:53.466Z,19.70
2022-09-12T10:43:01.059Z,19.85
2022-09-12T10:46:15.994Z,20.15
2022-09-12T10:49:25.832Z,20.22
2022-09-12T10:52:28.547Z,20.77
2022-09-12T10:55:34.983Z,20.51
2022-09-12T10:58:53.709Z,21.00
2022-09-12T11:02:30.097Z,22.01
2022-09-12T11:05:45.986Z,21.60
2022-09-12T11:09:15.863Z,20.99
2022-09-12T11:12:43.692Z,21.44
2022-09-12T11:16:07.041Z,21.40
2022-09-12T11:19:26.131Z,21.52
2022-09-12T11:22:41.031Z,21.33
2022-09-12T11:26:18.565Z,23.33
2022-09-12T11:29:52.627Z,26.63
2022-09-12T11:33:02.450Z,28.21
2022-09-12T11:36:13.708Z,28.69
2022-09-12T11:39:21.684Z,29.04
2022-09-12T11:42:35.668Z,28.16
2022-09-12T11:45:44.704Z,24.17
2022-09-12T11:48:59.461Z,22.90
2022-09-12T11:52:11.025Z,21.35
2022-09-12T11:55:19.443Z,21.12
2022-09-12T11:58:26.648Z,20.26
2022-09-12T12:01:42.941Z,20.20
2022-09-12T12:05:17.341Z,19.91
2022-09-12T12:08:25.203Z,19.83
2022-09-12T12:11:39.857Z,19.89
2022-09-12T12:14:46.757Z,20.06
2022-09-12T12:18:03.502Z,20.47
2022-09-12T12:21:42.302Z,21.69
2022-09-12T12:25:21.572Z,22.76
2022-09-12T12:28:43.128Z,22.18
2022-09-12T12:32:02.103Z,21.40
2022-09-12T12:35:42.365Z,21.36
2022-09-12T12:38:45.311Z,22.75
2022-09-12T12:41:47.920Z,22.81
2022-09-12T12:44:51.593Z,21.72
2022-09-12T12:47:58.150Z,21.16
2022-09-12T12:51:28.944Z,20.92
2022-09-12T12:54:49.607Z,22.69
2022-09-12T12:57:55.133Z,26.56
2022-09-12T13:01:09.621Z,26.43
2022-09-12T13:04:17.936Z,28.00
2022-09-12T13:07:33.663Z,24.98
2022-09-12T13:10:37.474Z,22.69
2022-09-12T13:13:58.522Z,26.13
2022-09-12T13:17:06.386Z,26.74
2022-09-12T13:20:29.643Z,23.87
2022-09-12T13:23:35.220Z,25.03
2022-09-12T13:26:43.926Z,28.30
2022-09-12T13:29:47.379Z,27.27
2022-09-12T13:32:50.167Z,29.53
2022-09-12T13:36:27.159Z,31.25
2022-09-12T13:39:38.233Z,29.87
2022-09-12T13:43:05.671Z,26.51
2022-09-12T13:46:10.153Z,24.39
2022-09-12T13:49:35.231Z,22.37
2022-09-12T13:52:38.718Z,25.59
2022-09-12T13:55:46.159Z,27.56
2022-09-12T13:58:57.673Z,29.06
2022-09-12T14:02:00.668Z,31.78
2022-09-12T14:05:24.244Z,30.81
2022-09-12T14:08:26.995Z,27.47
2022-09-12T14:11:30.989Z,26.71
2022-09-12T14:14:36.563Z,24.89
2022-09-12T14:17:43.111Z,23.59
2022-09-12T14:20:45.784Z,23.36
2022-09-12T14:23:49.291Z,23.56
2022-09-12T14:26:56.680Z,22.22
2022-09-12T14:30:09.111Z,21.90
2022-09-12T14:33:11.597Z,21.94
2022-09-12T14:36:52.834Z,21.87
2022-09-12T14:39:56.273Z,21.85
2022-09-12T14:43:01.213Z,21.52
2022-09-12T14:46:20.437Z,21.54
2022-09-12T14:49:36.608Z,21.47
2022-09-12T14:52:40.130Z,21.42
2022-09-12T14:55:46.434Z,21.31
2022-09-12T14:58:49.745Z,21.19
2022-09-12T15:02:20.665Z,20.97
2022-09-12T15:05:26.498Z,20.80
2022-09-12T15:08:30.475Z,20.79
2022-09-12T15:11:33.920Z,20.87
2022-09-12T15:14:36.899Z,20.78
2022-09-12T15:17:39.486Z,20.68
2022-09-12T15:20:46.356Z,20.62
2022-09-12T15:23:50.777Z,20.66
2022-09-12T15:26:53.733Z,20.55
2022-09-12T15:29:56.382Z,20.49
2022-09-12T15:33:00.117Z,20.47
2022-09-12T15:36:02.881Z,20.39
2022-09-12T15:39:05.639Z,20.32
2022-09-12T15:42:11.088Z,20.33
2022-09-12T15:45:21.910Z,20.26
2022-09-12T15:48:24.572Z,20.19
2022-09-12T15:51:27.768Z,20.19
2022-09-12T15:54:30.398Z,20.23
2022-09-12T15:57:33.110Z,20.12
2022-09-12T16:00:35.676Z,20.07
2022-09-12T16:03:38.496Z,20.06
2022-09-12T16:06:40.936Z,20.03
2022-09-12T16:09:43.681Z,19.99
2022-09-12T16:12:46.268Z,19.95
2022-09-12T16:15:49.170Z,19.92
2022-09-12T16:18:51.783Z,19.85
2022-09-12T16:21:54.506Z,19.80
2022-09-12T16:24:56.963Z,19.74
2022-09-12T16:28:01.523Z,19.71
2022-09-12T16:31:05.978Z,19.58
2022-09-12T16:34:08.832Z,19.57
2022-09-12T16:37:11.550Z,19.52
2022-09-12T16:40:17.828Z,19.50
2022-09-12T16:43:20.458Z,19.37
2022-09-12T16:46:30.573Z,19.16
2022-09-12T16:49:33.115Z,19.02
2022-09-12T16:52:35.859Z,19.07
2022-09-12T16:55:38.332Z,19.05
2022-09-12T16:58:42.360Z,18.89
2022-09-12T17:01:45.309Z,18.83
2022-09-12T17:04:48.841Z,18.76
2022-09-12T17:07:51.961Z,18.69
2022-09-12T17:11:06.509Z,18.59
2022-09-12T17:14:10.276Z,18.56
2022-09-12T17:17:13.099Z,18.56
2022-09-12T17:20:15.641Z,18.46
2022-09-12T17:23:18.359Z,18.28
2022-09-12T17:26:21.289Z,18.28
2022-09-12T17:29:24.030Z,18.19
2022-09-12T17:32:26.608Z,18.25
2022-09-12T17:35:29.406Z,18.17
2022-09-12T17:38:34.699Z,18.10
2022-09-12T17:41:37.754Z,18.02
2022-09-12T17:44:40.525Z,17.96
2022-09-12T17:47:43.287Z,17.90
2022-09-12T17:50:46.625Z,17.69
2022-09-12T17:53:49.360Z,17.56
2022-09-12T17:56:52.247Z,17.46
2022-09-12T17:59:55.011Z,17.52
2022-09-12T18:02:57.996Z,17.60
2022-09-12T18:06:01.022Z,17.58
2022-09-12T18:09:06.596Z,17.62
2022-09-12T18:12:09.513Z,17.62
2022-09-12T18:15:12.037Z,17.60
2022-09-12T18:18:14.752Z,17.47
2022-09-12T18:21:17.925Z,17.38
2022-09-12T18:24:21.041Z,17.39
2022-09-12T18:27:23.630Z,17.27
2022-09-12T18:30:26.808Z,17.08
2022-09-12T18:33:29.312Z,16.95
2022-09-12T18:36:32.360Z,16.94
2022-09-12T18:39:34.912Z,16.79
2022-09-12T18:42:37.724Z,16.62
2022-09-12T18:45:40.409Z,16.55
2022-09-12T18:48:44.907Z,16.56
2022-09-12T18:51:47.437Z,16.33
2022-09-12T18:54:50.292Z,16.33
2022-09-12T18:57:53.003Z,16.34
2022-09-12T19:00:56.143Z,16.24
2022-09-12T19:03:59.235Z,16.09
2022-09-12T19:07:02.223Z,16.26
2022-09-12T19:10:05.189Z,16.21
2022-09-12T19:13:07.943Z,16.19
2022-09-12T19:16:13.571Z,16.15
2022-09-12T19:19:16.917Z,16.02
2022-09-12T19:22:19.395Z,15.93
2022-09-12T19:25:22.273Z,15.89
2022-09-12T19:28:24.869Z,15.81
2022-09-12T19:31:27.769Z,15.85
2022-09-12T19:34:30.405Z,15.60
2022-09-12T19:37:33.120Z,15.85
2022-09-12T19:40:36.444Z,16.00
2022-09-12T19:43:40.065Z,15.91
2022-09-12T19:46:42.777Z,15.75
2022-09-12T19:49:45.783Z,15.81
2022-09-12T19:52:48.287Z,15.87
2022-09-12T19:55:51.070Z,15.99
2022-09-12T19:58:56.739Z,15.94
2022-09-12T20:02:00.044Z,15.89
2022-09-12T20:05:02.897Z,15.74
2022-09-12T20:08:05.412Z,15.78
2022-09-12T20:11:11.299Z,15.72
2022-09-12T20:14:14.079Z,15.64
2022-09-12T20:17:16.911Z,15.55
2022-09-12T20:20:19.381Z,15.74
2022-09-12T20:23:23.577Z,15.74
2022-09-12T20:26:26.648Z,15.79
2022-09-12T20:29:29.458Z,15.72
2022-09-12T20:32:31.961Z,15.52
2022-09-12T20:35:34.747Z,15.46
2022-09-12T20:38:37.337Z,15.21
2022-09-12T20:41:40.441Z,15.01
2022-09-12T20:44:42.899Z,14.77
2022-09-12T20:47:45.740Z,14.95
2022-09-12T20:50:48.225Z,15.13
2022-09-12T20:53:55.229Z,15.08
2022-09-12T20:56:57.724Z,15.35
2022-09-12T21:00:00.510Z,15.01
2022-09-12T21:03:03.557Z,14.88
2022-09-12T21:06:08.238Z,14.73
2022-09-12T21:09:10.880Z,14.67
2022-09-12T21:12:13.608Z,14.45
2022-09-12T21:15:16.038Z,14.27
2022-09-12T21:18:18.761Z,14.12
2022-09-12T21:21:21.425Z,13.99
2022-09-12T21:24:24.726Z,13.86
2022-09-12T21:27:27.805Z,13.78
2022-09-12T21:30:30.508Z,13.72
2022-09-12T21:33:32.982Z,13.70
2022-09-12T21:36:35.643Z,13.64
2022-09-12T21:39:38.111Z,13.54
2022-09-12T21:42:40.801Z,13.46
2022-09-12T21:45:43.159Z,13.48
2022-09-12T21:48:45.993Z,13.43
2022-09-12T21:51:48.536Z,13.44
2022-09-12T21:54:51.317Z,13.34
2022-09-12T21:57:54.798Z,13.40
2022-09-12T22:00:57.540Z,13.52
2022-09-12T22:04:00.443Z,13.49
2022-09-12T22:07:02.991Z,13.51
2022-09-12T22:10:06.463Z,13.42
2022-09-12T22:13:09.282Z,13.33
2022-09-12T22:16:12.335Z,13.24
2022-09-12T22:19:15.134Z,13.12
2022-09-12T22:22:36.358Z,13.00
2022-09-12T22:25:39.313Z,12.94
2022-09-12T22:28:43.066Z,12.88
2022-09-12T22:31:45.609Z,12.84
2022-09-12T22:34:48.407Z,12.86
2022-09-12T22:37:50.981Z,12.78
2022-09-12T22:40:53.996Z,12.69
2022-09-12T22:43:57.173Z,12.62
2022-09-12T22:47:00.110Z,12.52
2022-09-12T22:50:03.662Z,12.39
2022-09-12T22:53:06.432Z,12.32
2022-09-12T22:56:09.435Z,12.24
2022-09-12T22:59:12.177Z,12.15
2022-09-12T23:02:14.672Z,12.14
2022-09-12T23:05:17.383Z,12.07
2022-09-12T23:08:19.849Z,11.98
2022-09-12T23:11:23.270Z,11.93
2022-09-12T23:14:25.698Z,11.87
2022-09-12T23:17:28.557Z,11.80
2022-09-12T23:20:31.263Z,11.75
2022-09-12T23:23:35.358Z,11.74
2022-09-12T23:26:37.833Z,11.70
2022-09-12T23:29:40.517Z,11.67
2022-09-12T23:32:42.965Z,11.69
2022-09-12T23:35:46.463Z,11.69
2022-09-12T23:38:49.637Z,11.59
2022-09-12T23:41:52.381Z,11.54
2022-09-12T23:44:54.926Z,11.49
2022-09-12T23:47:57.665Z,11.45
2022-09-12T23:51:00.597Z,11.41
2022-09-12T23:54:03.537Z,11.38
2022-09-12T23:57:06.177Z,11.32
